createdAt,value
2018-12-11T00:02:22.324Z,7.05
2018-12-11T00:05:29.137Z,7.10
2018-12-11T00:08:33.870Z,7.04
2018-12-11T00:11:38.596Z,7.31
2018-12-11T00:14:43.326Z,7.29
2018-12-11T00:17:48.053Z,7.25
2018-12-11T00:20:52.800Z,7.23
2018-12-11T00:23:57.518Z,7.33
2018-12-11T00:27:02.241Z,7.11
2018-12-11T00:30:07.310Z,7.14
2018-12-11T00:33:12.193Z,7.20
2018-12-11T00:36:16.942Z,7.25
2018-12-11T00:39:21.657Z,7.28
2018-12-11T00:42:32.644Z,7.11
2018-12-11T00:45:37.365Z,7.18
2018-12-11T00:48:42.071Z,7.13
2018-12-11T00:51:46.793Z,6.95
2018-12-11T00:54:51.593Z,6.87
2018-12-11T00:57:56.314Z,7.07
2018-12-11T01:01:01.054Z,7.00
2018-12-11T01:04:07.822Z,6.85
2018-12-11T01:07:12.575Z,7.02
2018-12-11T01:10:17.347Z,6.98
2018-12-11T01:13:22.045Z,7.08
2018-12-11T01:16:26.770Z,6.89
2018-12-11T01:19:31.493Z,6.77
2018-12-11T01:22:36.197Z,6.84
2018-12-11T01:25:40.918Z,6.60
2018-12-11T01:28:45.655Z,6.78
2018-12-11T01:31:50.392Z,6.64
2018-12-11T01:34:55.117Z,6.75
2018-12-11T01:37:59.845Z,6.71
2018-12-11T01:41:04.644Z,6.74
2018-12-11T01:44:09.409Z,6.70
2018-12-11T01:47:14.146Z,6.79
2018-12-11T01:50:19.263Z,6.70
2018-12-11T01:53:24.004Z,6.70
2018-12-11T01:56:28.689Z,6.79
2018-12-11T01:59:33.384Z,6.75
2018-12-11T02:02:38.133Z,6.48
2018-12-11T02:05:43.013Z,6.59
2018-12-11T02:08:47.957Z,6.68
2018-12-11T02:11:52.697Z,6.38
2018-12-11T02:14:57.429Z,6.37
2018-12-11T02:18:02.162Z,6.33
2018-12-11T02:21:06.917Z,6.31
2018-12-11T02:24:11.638Z,6.41
2018-12-11T02:27:16.414Z,6.31
2018-12-11T02:30:21.104Z,6.46
2018-12-11T02:33:25.821Z,6.38
2018-12-11T02:36:30.568Z,6.10
2018-12-11T02:39:35.254Z,6.01
2018-12-11T02:42:40.006Z,6.30
2018-12-11T02:45:44.718Z,6.26
2018-12-11T02:48:49.456Z,6.17
2018-12-11T02:51:54.212Z,6.19
2018-12-11T02:54:58.929Z,6.23
2018-12-11T02:58:09.802Z,6.01
2018-12-11T03:01:14.581Z,6.12
2018-12-11T03:04:19.349Z,6.06
2018-12-11T03:07:24.046Z,5.94
2018-12-11T03:10:28.757Z,5.93
2018-12-11T03:13:33.469Z,5.91
2018-12-11T03:16:38.180Z,5.98
2018-12-11T03:19:42.929Z,5.92
2018-12-11T03:22:47.670Z,5.95
2018-12-11T03:25:52.399Z,6.06
2018-12-11T03:28:57.862Z,6.08
2018-12-11T03:32:02.612Z,6.30
2018-12-11T03:35:07.339Z,6.22
2018-12-11T03:38:12.057Z,6.27
2018-12-11T03:41:16.787Z,5.90
2018-12-11T03:44:21.620Z,6.01
2018-12-11T03:47:26.325Z,6.04
2018-12-11T03:50:31.083Z,6.09
2018-12-11T03:53:35.789Z,5.99
2018-12-11T03:56:40.503Z,5.99
2018-12-11T03:59:45.239Z,6.05
2018-12-11T04:02:49.954Z,5.98
2018-12-11T04:05:54.668Z,5.85
2018-12-11T04:08:59.415Z,6.03
2018-12-11T04:12:04.716Z,6.00
2018-12-11T04:15:09.604Z,5.80
2018-12-11T04:18:14.338Z,6.06
2018-12-11T04:21:19.050Z,5.98
2018-12-11T04:24:23.790Z,6.14
2018-12-11T04:27:30.694Z,6.00
2018-12-11T04:30:41.879Z,6.03
2018-12-11T04:33:46.612Z,6.27
2018-12-11T04:36:51.354Z,6.17
2018-12-11T04:39:56.089Z,6.12
2018-12-11T04:43:00.844Z,6.19
2018-12-11T04:46:05.593Z,5.96
2018-12-11T04:49:10.304Z,6.06
2018-12-11T04:52:15.053Z,6.16
2018-12-11T04:55:19.781Z,6.12
2018-12-11T04:58:24.528Z,6.13
2018-12-11T05:01:29.225Z,6.09
2018-12-11T05:04:33.973Z,6.29
2018-12-11T05:07:38.707Z,5.93
2018-12-11T05:10:43.635Z,6.06
2018-12-11T05:13:48.358Z,6.13
2018-12-11T05:16:53.197Z,6.17
2018-12-11T05:19:57.895Z,6.00
2018-12-11T05:23:02.593Z,5.90
2018-12-11T05:26:08.301Z,5.94
2018-12-11T05:29:13.181Z,6.16
2018-12-11T05:32:17.908Z,5.99
2018-12-11T05:35:22.612Z,6.13
2018-12-11T05:38:27.982Z,5.94
2018-12-11T05:41:32.720Z,5.93
2018-12-11T05:44:37.468Z,6.06
2018-12-11T05:47:42.207Z,5.98
2018-12-11T05:50:46.916Z,5.96
2018-12-11T05:53:51.781Z,6.02
2018-12-11T05:56:56.490Z,5.95
2018-12-11T06:00:01.208Z,6.00
2018-12-11T06:03:06.415Z,6.30
2018-12-11T06:06:11.118Z,6.22
2018-12-11T06:09:15.930Z,6.26
2018-12-11T06:12:20.636Z,6.27
2018-12-11T06:15:25.345Z,6.27
2018-12-11T06:18:30.076Z,6.60
2018-12-11T06:21:34.829Z,6.78
2018-12-11T06:24:39.555Z,7.05
2018-12-11T06:27:44.274Z,7.01
2018-12-11T06:30:48.962Z,7.10
2018-12-11T06:33:53.697Z,7.92
2018-12-11T06:36:58.420Z,7.92
2018-12-11T06:40:03.139Z,7.52
2018-12-11T06:43:07.889Z,7.29
2018-12-11T06:46:12.615Z,7.04
2018-12-11T06:49:17.386Z,7.01
2018-12-11T06:52:22.133Z,7.01
2018-12-11T06:55:26.843Z,6.86
2018-12-11T06:58:31.583Z,6.77
2018-12-11T07:01:36.299Z,6.76
2018-12-11T07:04:41.029Z,6.90
2018-12-11T07:07:45.738Z,7.06
2018-12-11T07:10:50.473Z,6.94
2018-12-11T07:13:56.362Z,7.13
2018-12-11T07:17:01.122Z,7.65
2018-12-11T07:20:07.101Z,7.91
2018-12-11T07:23:11.875Z,8.36
2018-12-11T07:26:16.641Z,8.77
2018-12-11T07:29:21.372Z,9.25
2018-12-11T07:32:26.135Z,9.31
2018-12-11T07:35:30.877Z,9.26
2018-12-11T07:38:35.603Z,9.46
2018-12-11T07:41:40.344Z,9.74
2018-12-11T07:44:45.072Z,9.58
2018-12-11T07:47:49.785Z,10.03
2018-12-11T07:50:54.537Z,10.42
2018-12-11T07:53:59.290Z,10.90
2018-12-11T07:57:04.001Z,10.57
2018-12-11T08:00:09.110Z,10.33
2018-12-11T08:03:13.866Z,9.57
2018-12-11T08:06:18.597Z,9.45
2018-12-11T08:09:23.357Z,8.76
2018-12-11T08:12:28.086Z,8.88
2018-12-11T08:15:32.796Z,9.25
2018-12-11T08:18:37.513Z,9.75
2018-12-11T08:21:42.281Z,9.69
2018-12-11T08:24:46.955Z,10.13
2018-12-11T08:27:51.646Z,10.54
2018-12-11T08:30:56.382Z,10.36
2018-12-11T08:34:01.114Z,10.40
2018-12-11T08:37:05.865Z,10.25
2018-12-11T08:40:10.600Z,10.47
2018-12-11T08:43:15.352Z,10.76
2018-12-11T08:46:20.099Z,10.88
2018-12-11T08:49:24.795Z,10.95
2018-12-11T08:52:29.537Z,11.41
2018-12-11T08:55:34.268Z,11.40
2018-12-11T08:58:38.984Z,11.20
2018-12-11T09:01:43.848Z,11.42
2018-12-11T09:04:48.578Z,11.38
2018-12-11T09:07:53.310Z,11.30
2018-12-11T09:10:58.036Z,11.72
2018-12-11T09:14:02.790Z,11.87
2018-12-11T09:17:10.467Z,11.84
2018-12-11T09:20:15.526Z,11.88
2018-12-11T09:23:20.307Z,11.98
2018-12-11T09:26:25.046Z,12.31
2018-12-11T09:29:29.958Z,12.56
2018-12-11T09:32:34.687Z,12.17
2018-12-11T09:35:39.528Z,11.92
2018-12-11T09:38:44.274Z,12.30
2018-12-11T09:41:48.994Z,12.26
2018-12-11T09:44:53.716Z,12.78
2018-12-11T09:47:58.473Z,12.95
2018-12-11T09:51:03.205Z,12.88
2018-12-11T09:54:07.960Z,12.87
2018-12-11T09:57:12.696Z,12.83
2018-12-11T10:00:19.285Z,13.22
2018-12-11T10:03:24.177Z,12.58
2018-12-11T10:06:28.932Z,12.71
2018-12-11T10:09:33.751Z,12.09
2018-12-11T10:12:38.492Z,12.51
2018-12-11T10:15:43.213Z,12.41
2018-12-11T10:18:47.952Z,12.52
2018-12-11T10:21:52.784Z,12.72
2018-12-11T10:24:57.539Z,12.94
2018-12-11T10:28:02.258Z,12.95
2018-12-11T10:31:07.033Z,12.91
2018-12-11T10:34:11.801Z,13.08
2018-12-11T10:37:16.534Z,13.03
2018-12-11T10:40:21.281Z,13.07
2018-12-11T10:43:26.032Z,13.37
2018-12-11T10:46:33.715Z,13.19
2018-12-11T10:49:37.678Z,13.43
2018-12-11T10:52:42.461Z,13.45
2018-12-11T10:55:47.187Z,13.23
2018-12-11T10:58:51.930Z,13.20
2018-12-11T11:01:58.889Z,13.46
2018-12-11T11:05:03.709Z,13.47
2018-12-11T11:08:08.423Z,13.58
2018-12-11T11:11:13.165Z,13.36
2018-12-11T11:14:17.982Z,13.19
2018-12-11T11:17:22.797Z,13.31
2018-12-11T11:20:27.611Z,13.41
2018-12-11T11:23:32.319Z,13.71
2018-12-11T11:26:37.053Z,13.31
2018-12-11T11:29:41.777Z,13.56
2018-12-11T11:32:46.496Z,13.63
2018-12-11T11:35:51.221Z,13.96
2018-12-11T11:38:55.918Z,13.38
2018-12-11T11:42:00.651Z,13.44
2018-12-11T11:45:06.977Z,13.59
2018-12-11T11:48:12.984Z,13.34
2018-12-11T11:51:17.696Z,13.18
2018-12-11T11:54:22.477Z,13.28
2018-12-11T11:57:29.858Z,13.47
2018-12-11T12:00:33.990Z,13.52
2018-12-11T12:03:38.784Z,13.61
2018-12-11T12:06:43.541Z,13.27
2018-12-11T12:09:48.296Z,13.29
2018-12-11T12:12:59.514Z,13.27
2018-12-11T12:16:04.254Z,13.25
2018-12-11T12:19:08.985Z,13.24
2018-12-11T12:22:15.078Z,13.07
2018-12-11T12:25:19.819Z,13.03
2018-12-11T12:28:24.559Z,13.24
2018-12-11T12:31:29.814Z,13.01
2018-12-11T12:34:34.582Z,13.20
2018-12-11T12:37:39.305Z,12.62
2018-12-11T12:40:44.026Z,12.91
2018-12-11T12:43:48.881Z,12.76
2018-12-11T12:46:53.605Z,12.95
2018-12-11T12:49:58.379Z,12.87
2018-12-11T12:53:04.066Z,12.54
2018-12-11T12:56:08.859Z,12.96
2018-12-11T12:59:13.633Z,12.78
2018-12-11T13:02:18.356Z,12.63
2018-12-11T13:05:23.921Z,12.36
2018-12-11T13:08:28.958Z,12.21
2018-12-11T13:11:33.743Z,12.27
2018-12-11T13:14:38.591Z,12.07
2018-12-11T13:17:43.376Z,12.17
2018-12-11T13:20:48.206Z,11.75
2018-12-11T13:23:53.021Z,11.79
2018-12-11T13:26:57.808Z,11.58
2018-12-11T13:30:02.614Z,11.50
2018-12-11T13:33:07.584Z,11.32
2018-12-11T13:36:12.361Z,10.90
2018-12-11T13:39:17.073Z,11.04
2018-12-11T13:42:21.808Z,11.14
2018-12-11T13:45:26.563Z,10.77
2018-12-11T13:48:31.298Z,11.07
2018-12-11T13:51:36.041Z,10.87
2018-12-11T13:54:40.762Z,10.66
2018-12-11T13:57:45.486Z,10.55
2018-12-11T14:00:50.299Z,10.21
2018-12-11T14:03:55.034Z,9.90
2018-12-11T14:06:59.760Z,9.93
2018-12-11T14:10:05.085Z,9.11
2018-12-11T14:13:10.055Z,9.44
2018-12-11T14:16:14.871Z,9.59
2018-12-11T14:19:19.656Z,9.51
2018-12-11T14:22:24.382Z,9.37
2018-12-11T14:25:29.085Z,9.40
2018-12-11T14:28:34.004Z,9.29
2018-12-11T14:31:38.774Z,9.22
2018-12-11T14:34:43.506Z,9.20
2018-12-11T14:37:48.365Z,8.97
2018-12-11T14:40:53.092Z,8.96
2018-12-11T14:43:57.886Z,8.59
2018-12-11T14:47:02.689Z,8.68
2018-12-11T14:50:09.228Z,8.46
2018-12-11T14:53:13.964Z,8.37
2018-12-11T14:56:18.691Z,8.24
2018-12-11T14:59:23.421Z,8.09
2018-12-11T15:02:29.501Z,8.23
2018-12-11T15:05:34.477Z,7.98
2018-12-11T15:08:39.216Z,8.05
2018-12-11T15:11:44.033Z,8.09
2018-12-11T15:14:48.801Z,7.95
2018-12-11T15:17:53.597Z,7.76
2018-12-11T15:20:58.373Z,7.65
2018-12-11T15:24:03.095Z,7.77
2018-12-11T15:27:07.869Z,7.42
2018-12-11T15:30:12.613Z,7.65
2018-12-11T15:33:17.520Z,7.71
2018-12-11T15:36:22.253Z,7.46
2018-12-11T15:39:26.969Z,7.47
2018-12-11T15:42:31.685Z,7.69
2018-12-11T15:45:36.402Z,7.66
2018-12-11T15:48:41.173Z,7.61
2018-12-11T15:51:45.881Z,7.56
2018-12-11T15:54:50.610Z,7.60
2018-12-11T15:57:55.308Z,7.63
2018-12-11T16:01:00.047Z,7.43
2018-12-11T16:04:04.844Z,7.59
2018-12-11T16:07:09.592Z,7.43
2018-12-11T16:10:14.476Z,7.31
2018-12-11T16:13:19.306Z,7.32
2018-12-11T16:16:24.016Z,7.18
2018-12-11T16:19:28.825Z,7.10
2018-12-11T16:22:33.583Z,7.01
2018-12-11T16:25:38.315Z,7.07
2018-12-11T16:28:43.046Z,7.08
2018-12-11T16:31:47.812Z,6.94
2018-12-11T16:34:52.885Z,7.08
2018-12-11T16:37:57.771Z,6.92
2018-12-11T16:41:02.535Z,6.95
2018-12-11T16:44:07.293Z,6.66
2018-12-11T16:47:12.058Z,6.74
2018-12-11T16:50:16.808Z,6.81
2018-12-11T16:53:21.690Z,7.10
2018-12-11T16:56:27.088Z,6.81
2018-12-11T16:59:31.970Z,6.84
2018-12-11T17:02:36.690Z,6.49
2018-12-11T17:05:41.427Z,6.77
2018-12-11T17:08:46.160Z,6.55
2018-12-11T17:11:50.929Z,6.85
2018-12-11T17:14:56.527Z,6.81
2018-12-11T17:18:01.350Z,6.82
2018-12-11T17:21:06.472Z,6.95
2018-12-11T17:24:11.224Z,6.89
2018-12-11T17:27:15.977Z,6.96
2018-12-11T17:30:20.699Z,6.86
2018-12-11T17:33:25.422Z,7.05
2018-12-11T17:36:30.166Z,7.11
2018-12-11T17:39:34.925Z,6.92
2018-12-11T17:42:39.742Z,6.88
2018-12-11T17:45:45.623Z,7.10
2018-12-11T17:48:50.516Z,6.83
2018-12-11T17:51:55.249Z,6.96
2018-12-11T17:55:00.138Z,6.94
2018-12-11T17:58:05.005Z,6.97
2018-12-11T18:01:10.057Z,6.79
2018-12-11T18:04:14.963Z,7.13
2018-12-11T18:07:19.704Z,6.90
2018-12-11T18:10:24.510Z,6.95
2018-12-11T18:13:29.521Z,7.10
2018-12-11T18:16:34.282Z,7.02
2018-12-11T18:19:39.075Z,6.86
2018-12-11T18:22:43.816Z,6.80
2018-12-11T18:25:48.557Z,6.77
2018-12-11T18:28:53.813Z,6.64
2018-12-11T18:31:59.439Z,6.82
2018-12-11T18:35:04.965Z,6.53
2018-12-11T18:38:09.849Z,6.38
2018-12-11T18:41:14.774Z,6.30
2018-12-11T18:44:19.605Z,6.31
2018-12-11T18:47:25.839Z,6.37
2018-12-11T18:50:30.884Z,6.35
2018-12-11T18:53:35.744Z,6.35
2018-12-11T18:56:40.485Z,6.32
2018-12-11T18:59:45.230Z,6.51
2018-12-11T19:02:49.983Z,6.52
2018-12-11T19:05:54.809Z,6.44
2018-12-11T19:09:05.602Z,6.62
2018-12-11T19:12:08.608Z,6.46
2018-12-11T19:15:13.784Z,6.37
2018-12-11T19:18:18.606Z,6.46
2018-12-11T19:21:23.389Z,6.39
2018-12-11T19:24:47.067Z,6.54
2018-12-11T19:27:51.974Z,6.57
2018-12-11T19:30:57.449Z,6.65
2018-12-11T19:34:03.602Z,6.64
2018-12-11T19:37:09.120Z,6.68
2018-12-11T19:40:15.398Z,6.71
2018-12-11T19:43:20.145Z,6.62
2018-12-11T19:46:25.033Z,6.71
2018-12-11T19:49:29.784Z,6.66
2018-12-11T19:52:39.714Z,6.55
2018-12-11T19:55:42.271Z,6.40
2018-12-11T19:58:47.256Z,6.62
2018-12-11T20:01:52.010Z,6.38
2018-12-11T20:04:56.750Z,6.58
2018-12-11T20:08:01.518Z,6.65
2018-12-11T20:11:06.317Z,6.31
2018-12-11T20:14:11.269Z,6.42
2018-12-11T20:17:16.063Z,6.41
2018-12-11T20:20:25.818Z,6.39
2018-12-11T20:23:30.760Z,6.47
2018-12-11T20:26:39.266Z,6.45
2018-12-11T20:29:42.302Z,6.37
2018-12-11T20:32:47.050Z,6.36
2018-12-11T20:35:51.769Z,6.52
2018-12-11T20:38:56.529Z,6.10
2018-12-11T20:42:01.253Z,6.36
2018-12-11T20:45:06.853Z,6.48
2018-12-11T20:48:11.740Z,6.69
2018-12-11T20:51:16.523Z,6.57
2018-12-11T20:54:21.246Z,6.36
2018-12-11T20:57:25.996Z,6.59
2018-12-11T21:00:34.122Z,6.45
2018-12-11T21:03:39.011Z,6.46
2018-12-11T21:06:43.721Z,6.23
2018-12-11T21:09:48.451Z,5.94
2018-12-11T21:12:53.201Z,5.95
2018-12-11T21:15:57.930Z,5.94
2018-12-11T21:19:02.870Z,6.02
2018-12-11T21:22:07.606Z,6.03
2018-12-11T21:25:12.326Z,6.06
2018-12-11T21:28:17.235Z,6.12
2018-12-11T21:31:21.997Z,5.86
2018-12-11T21:34:26.725Z,6.12
2018-12-11T21:37:31.455Z,6.01
2018-12-11T21:40:36.386Z,5.83
2018-12-11T21:43:41.096Z,6.06
2018-12-11T21:46:45.807Z,6.05
2018-12-11T21:49:50.564Z,6.17
2018-12-11T21:52:55.307Z,6.07
2018-12-11T21:56:00.064Z,6.09
2018-12-11T21:59:04.854Z,5.88
2018-12-11T22:02:09.592Z,5.86
2018-12-11T22:05:14.350Z,5.68
2018-12-11T22:08:19.115Z,5.98
2018-12-11T22:11:24.092Z,6.04
2018-12-11T22:14:28.838Z,5.73
2018-12-11T22:17:33.650Z,5.85
2018-12-11T22:20:38.381Z,5.99
2018-12-11T22:23:43.125Z,5.85
2018-12-11T22:26:47.839Z,5.89
2018-12-11T22:29:52.594Z,5.92
2018-12-11T22:32:57.309Z,5.90
2018-12-11T22:36:02.046Z,5.73
2018-12-11T22:39:08.660Z,5.85
2018-12-11T22:42:13.855Z,5.68
2018-12-11T22:45:18.563Z,5.73
2018-12-11T22:48:23.559Z,5.70
2018-12-11T22:51:28.773Z,5.45
2018-12-11T22:54:33.682Z,5.42
2018-12-11T22:57:38.407Z,5.62
2018-12-11T23:00:45.744Z,5.37
2018-12-11T23:03:52.554Z,5.54
2018-12-11T23:06:57.348Z,5.28
2018-12-11T23:10:02.462Z,5.46
2018-12-11T23:13:07.415Z,5.49
2018-12-11T23:16:12.166Z,5.47
2018-12-11T23:19:16.862Z,5.50
2018-12-11T23:22:21.941Z,5.58
2018-12-11T23:25:26.677Z,5.66
2018-12-11T23:28:31.441Z,5.14
2018-12-11T23:31:36.145Z,5.40
2018-12-11T23:34:40.865Z,5.38
2018-12-11T23:37:45.617Z,5.37
2018-12-11T23:40:50.340Z,5.48
2018-12-11T23:43:55.094Z,5.37
2018-12-11T23:46:59.822Z,5.34
2018-12-11T23:50:04.765Z,5.42
2018-12-11T23:53:09.484Z,5.28
2018-12-11T23:56:14.173Z,5.17
2018-12-11T23:59:18.885Z,5.37
